This is the latest recevied weather packets stored in our database for station/object KA7EII-13. If no packets are shown the sender has not sent any weather packets the latest 10 day(s).
| Time | Temp. | Humidity | Pressure | Rain* | Wind** | Luminosity | Snow |
|---|---|---|---|---|---|---|---|
| 1777587513 | 16.67° C | 25% | 1108.3 hPa | 0 mm | - | 486 W/m² | - |
| 1777587210 | 16.67° C | 25% | 1107.9 hPa | 0 mm | - | 514 W/m² | - |
| 1777586905 | 16.11° C | 27% | 1107.9 hPa | 0 mm | - | 572 W/m² | - |
| 1777586602 | 16.11° C | 24% | 1108.1 hPa | 0 mm | - | 580 W/m² | - |
| 1777586297 | 16.11° C | 25% | 1108.3 hPa | 0 mm | - | 599 W/m² | - |
| 1777585995 | 16.67° C | 24% | 1108.3 hPa | 0 mm | - | 583 W/m² | - |
| 1777585690 | 16.67° C | 25% | 1108.4 hPa | 0 mm | - | 573 W/m² | - |
| 1777585384 | 15.56° C | 28% | 1108.5 hPa | 0 mm | - | 619 W/m² | - |
| 1777585079 | 16.11° C | 24% | 1108.3 hPa | 0 mm | - | 652 W/m² | - |
| 1777584776 | 15.56° C | 26% | 1108.6 hPa | 0 mm | - | 663 W/m² | - |
| 1777584474 | 16.67° C | 24% | 1108.5 hPa | 0 mm | - | 670 W/m² | - |
| 1777584170 | 16.67° C | 26% | 1108.7 hPa | 0 mm | - | 646 W/m² | - |
| 1777583870 | 16.11° C | 27% | 1108.6 hPa | 0 mm | - | 630 W/m² | - |
| 1777583566 | 15.56° C | 29% | 1108.9 hPa | 0 mm | - | 650 W/m² | - |
| 1777583264 | 15.56° C | 23% | 1108.7 hPa | 0 mm | - | 689 W/m² | - |
| 1777582964 | 16.11° C | 26% | 1108.7 hPa | 0 mm | - | 683 W/m² | - |
| 1777582662 | 16.67° C | 24% | 1108.7 hPa | 0 mm | - | 698 W/m² | - |
| 1777582357 | 15° C | 27% | 1108.7 hPa | 0 mm | - | 698 W/m² | - |
| 1777582055 | 15.56° C | 26% | 1108.7 hPa | 0 mm | - | 705 W/m² | - |
| 1777581750 | 15.56° C | 25% | 1108.6 hPa | 0 mm | - | 714 W/m² | - |
| 1777581449 | 15.56° C | 25% | 1108.9 hPa | 0 mm | - | 676 W/m² | - |
| 1777581144 | 16.11° C | 25% | 1108.4 hPa | 0 mm | - | 688 W/m² | - |
| 1777580839 | 15.56° C | 27% | 1109 hPa | 0 mm | - | 688 W/m² | - |
| 1777580534 | 15.56° C | 25% | 1109 hPa | 0 mm | - | 704 W/m² | - |
| 1777580230 | 15.56° C | 26% | 1109.1 hPa | 0 mm | - | 723 W/m² | - |
* Rain latest hour (hover to see other rain measurements)
** Current wind speed in m/s (hover to see current wind gust speed)